sensor_id;sensor_type;location;lat;lon;timestamp;pressure;altitude;pressure_sealevel;temperature;humidity
70434;BME280;57876;47.792;12.960;2023-04-29T00:01:10;96510.41;;;14.24;54.34
70434;BME280;57876;47.792;12.960;2023-04-29T00:03:34;96508.50;;;14.24;54.50
70434;BME280;57876;47.792;12.960;2023-04-29T00:06:00;96498.56;;;14.20;54.46
70434;BME280;57876;47.792;12.960;2023-04-29T00:08:24;96508.00;;;14.22;54.42
70434;BME280;57876;47.792;12.960;2023-04-29T00:10:49;96497.75;;;14.19;54.50
70434;BME280;57876;47.792;12.960;2023-04-29T00:13:14;96493.44;;;14.18;54.14
70434;BME280;57876;47.792;12.960;2023-04-29T00:15:40;96489.28;;;14.21;54.78
70434;BME280;57876;47.792;12.960;2023-04-29T00:18:04;96491.81;;;14.17;54.26
70434;BME280;57876;47.792;12.960;2023-04-29T00:20:29;96493.44;;;14.18;54.32
70434;BME280;57876;47.792;12.960;2023-04-29T00:22:54;96485.44;;;14.22;54.33
70434;BME280;57876;47.792;12.960;2023-04-29T00:25:18;96483.53;;;14.22;54.32
70434;BME280;57876;47.792;12.960;2023-04-29T00:27:43;96487.06;;;14.23;54.60
70434;BME280;57876;47.792;12.960;2023-04-29T00:30:08;96479.03;;;14.18;54.26
70434;BME280;57876;47.792;12.960;2023-04-29T00:32:33;96483.84;;;14.21;54.50
70434;BME280;57876;47.792;12.960;2023-04-29T00:34:57;96486.88;;;14.19;54.54
70434;BME280;57876;47.792;12.960;2023-04-29T00:37:22;96484.66;;;14.21;54.24
70434;BME280;57876;47.792;12.960;2023-04-29T00:39:47;96479.50;;;14.20;54.54
70434;BME280;57876;47.792;12.960;2023-04-29T00:42:12;96486.88;;;14.19;54.15
70434;BME280;57876;47.792;12.960;2023-04-29T00:44:37;96477.13;;;14.18;54.28
70434;BME280;57876;47.792;12.960;2023-04-29T00:47:01;96480.81;;;14.22;54.10
70434;BME280;57876;47.792;12.960;2023-04-29T00:49:26;96468.47;;;14.16;54.36
70434;BME280;57876;47.792;12.960;2023-04-29T00:51:51;96484.66;;;14.21;54.21
70434;BME280;57876;47.792;12.960;2023-04-29T00:54:16;96478.22;;;14.17;54.26
70434;BME280;57876;47.792;12.960;2023-04-29T00:56:44;96477.44;;;14.17;54.45
70434;BME280;57876;47.792;12.960;2023-04-29T00:59:09;96481.44;;;14.19;54.22
70434;BME280;57876;47.792;12.960;2023-04-29T01:01:35;96483.06;;;14.20;54.38
70434;BME280;57876;47.792;12.960;2023-04-29T01:04:00;96484.66;;;14.21;54.28
70434;BME280;57876;47.792;12.960;2023-04-29T01:06:38;96487.53;;;14.25;54.18
70434;BME280;57876;47.792;12.960;2023-04-29T01:11:54;96473.59;;;14.18;53.93
70434;BME280;57876;47.792;12.960;2023-04-29T01:14:21;96474.06;;;14.20;54.33
70434;BME280;57876;47.792;12.960;2023-04-29T01:16:50;96469.28;;;14.17;54.29
70434;BME280;57876;47.792;12.960;2023-04-29T01:19:43;96467.84;;;14.19;54.29
70434;BME280;57876;47.792;12.960;2023-04-29T01:22:11;96464.81;;;14.21;54.34
70434;BME280;57876;47.792;12.960;2023-04-29T01:24:38;96468.31;;;14.21;54.07
70434;BME280;57876;47.792;12.960;2023-04-29T01:29:57;96471.69;;;14.18;54.29
70434;BME280;57876;47.792;12.960;2023-04-29T01:32:46;96467.84;;;14.19;54.25
70434;BME280;57876;47.792;12.960;2023-04-29T01:41:02;96487.22;;;14.18;53.93
70434;BME280;57876;47.792;12.960;2023-04-29T01:43:33;96477.75;;;14.15;54.15
70434;BME280;57876;47.792;12.960;2023-04-29T01:46:01;96486.88;;;14.19;54.17
70434;BME280;57876;47.792;12.960;2023-04-29T01:48:28;96480.47;;;14.15;54.04
70434;BME280;57876;47.792;12.960;2023-04-29T01:50:53;96488.78;;;14.19;54.03
70434;BME280;57876;47.792;12.960;2023-04-29T01:53:17;96482.88;;;14.17;54.18
70434;BME280;57876;47.792;12.960;2023-04-29T01:55:42;96493.31;;;14.23;54.01
70434;BME280;57876;47.792;12.960;2023-04-29T01:58:07;96487.66;;;14.20;54.05
70434;BME280;57876;47.792;12.960;2023-04-29T02:00:31;96485.78;;;14.20;53.91
70434;BME280;57876;47.792;12.960;2023-04-29T02:02:56;96496.16;;;14.18;54.11
70434;BME280;57876;47.792;12.960;2023-04-29T02:05:21;96490.72;;;14.18;53.96
70434;BME280;57876;47.792;12.960;2023-04-29T02:07:45;96485.78;;;14.20;54.01
70434;BME280;57876;47.792;12.960;2023-04-29T02:10:11;96480.47;;;14.15;54.34
70434;BME280;57876;47.792;12.960;2023-04-29T02:12:35;96480.78;;;14.14;54.15
70434;BME280;57876;47.792;12.960;2023-04-29T02:15:00;96477.75;;;14.15;54.14
70434;BME280;57876;47.792;12.960;2023-04-29T02:17:24;96486.06;;;14.19;54.30
70434;BME280;57876;47.792;12.960;2023-04-29T02:19:49;96476.94;;;14.15;53.85
70434;BME280;57876;47.792;12.960;2023-04-29T02:22:14;96477.91;;;14.19;53.97
70434;BME280;57876;47.792;12.960;2023-04-29T02:24:38;96473.41;;;14.14;54.24
70434;BME280;57876;47.792;12.960;2023-04-29T02:27:03;96477.44;;;14.17;54.16
70434;BME280;57876;47.792;12.960;2023-04-29T02:29:29;96474.22;;;14.15;54.10
70434;BME280;57876;47.792;12.960;2023-04-29T02:31:54;96480.00;;;14.22;53.91
70434;BME280;57876;47.792;12.960;2023-04-29T02:34:19;96477.63;;;14.20;53.94
70434;BME280;57876;47.792;12.960;2023-04-29T02:36:43;96482.22;;;14.20;54.01
70434;BME280;57876;47.792;12.960;2023-04-29T02:39:08;96463.03;;;14.16;53.98
70434;BME280;57876;47.792;12.960;2023-04-29T02:41:32;96470.41;;;14.16;53.85
70434;BME280;57876;47.792;12.960;2023-04-29T02:43:57;96466.06;;;14.15;53.98
70434;BME280;57876;47.792;12.960;2023-04-29T02:46:22;96477.13;;;14.18;54.05
70434;BME280;57876;47.792;12.960;2023-04-29T02:48:46;96457.09;;;14.14;54.18
70434;BME280;57876;47.792;12.960;2023-04-29T02:51:11;96463.03;;;14.16;53.89
70434;BME280;57876;47.792;12.960;2023-04-29T02:53:35;96452.78;;;14.13;53.73
70434;BME280;57876;47.792;12.960;2023-04-29T02:56:00;96459.03;;;14.14;53.81
70434;BME280;57876;47.792;12.960;2023-04-29T02:58:25;96453.59;;;14.14;53.74
70434;BME280;57876;47.792;12.960;2023-04-29T03:00:49;96461.75;;;14.14;53.97
70434;BME280;57876;47.792;12.960;2023-04-29T03:03:14;96450.06;;;14.13;54.16
70434;BME280;57876;47.792;12.960;2023-04-29T03:05:39;96457.59;;;14.16;54.06
70434;BME280;57876;47.792;12.960;2023-04-29T03:08:04;96462.72;;;14.18;53.86
70434;BME280;57876;47.792;12.960;2023-04-29T03:10:28;96471.34;;;14.20;53.85
70434;BME280;57876;47.792;12.960;2023-04-29T03:12:55;96455.50;;;14.13;54.21
70434;BME280;57876;47.792;12.960;2023-04-29T03:15:22;96461.09;;;14.17;53.86
70434;BME280;57876;47.792;12.960;2023-04-29T03:17:46;96465.25;;;14.14;54.00
70434;BME280;57876;47.792;12.960;2023-04-29T03:20:11;96452.16;;;14.16;53.76
70434;BME280;57876;47.792;12.960;2023-04-29T03:22:36;96466.06;;;14.15;53.78
70434;BME280;57876;47.792;12.960;2023-04-29T03:25:00;96455.50;;;14.13;53.99
70434;BME280;57876;47.792;12.960;2023-04-29T03:27:25;96464.16;;;14.15;53.95
70434;BME280;57876;47.792;12.960;2023-04-29T03:29:50;96455.00;;;14.11;53.90
70434;BME280;57876;47.792;12.960;2023-04-29T03:32:15;96457.44;;;14.13;53.96
70434;BME280;57876;47.792;12.960;2023-04-29T03:34:39;96454.72;;;14.13;53.78
70434;BME280;57876;47.792;12.960;2023-04-29T03:37:04;96460.94;;;14.13;54.22
70434;BME280;57876;47.792;12.960;2023-04-29T03:39:29;96470.06;;;14.17;54.13
70434;BME280;57876;47.792;12.960;2023-04-29T03:41:55;96453.09;;;14.12;53.89
70434;BME280;57876;47.792;12.960;2023-04-29T03:44:20;96462.41;;;14.19;53.83
70434;BME280;57876;47.792;12.960;2023-04-29T03:46:44;96469.75;;;14.19;53.59
70434;BME280;57876;47.792;12.960;2023-04-29T03:49:09;96465.13;;;14.19;53.64
70434;BME280;57876;47.792;12.960;2023-04-29T03:51:33;96471.69;;;14.18;54.13
70434;BME280;57876;47.792;12.960;2023-04-29T03:53:58;96465.75;;;14.16;53.81
70434;BME280;57876;47.792;12.960;2023-04-29T03:56:23;96456.59;;;14.12;53.59
70434;BME280;57876;47.792;12.960;2023-04-29T03:58:48;96471.19;;;14.16;53.68
70434;BME280;57876;47.792;12.960;2023-04-29T04:01:13;96461.44;;;14.15;53.64
70434;BME280;57876;47.792;12.960;2023-04-29T04:03:38;96463.03;;;14.16;53.90
70434;BME280;57876;47.792;12.960;2023-04-29T04:06:03;96463.34;;;14.15;53.24
70434;BME280;57876;47.792;12.960;2023-04-29T04:08:27;96457.75;;;14.11;53.66
70434;BME280;57876;47.792;12.960;2023-04-29T04:10:52;96446.56;;;14.13;53.61
70434;BME280;57876;47.792;12.960;2023-04-29T04:13:16;96439.81;;;14.10;53.62
70434;BME280;57876;47.792;12.960;2023-04-29T04:15:41;96451.16;;;14.12;53.96
70434;BME280;57876;47.792;12.960;2023-04-29T04:18:05;96446.06;;;14.10;53.45
70434;BME280;57876;47.792;12.960;2023-04-29T04:20:30;96458.09;;;14.18;53.75
70434;BME280;57876;47.792;12.960;2023-04-29T04:22:57;96463.34;;;14.15;53.45
70434;BME280;57876;47.792;12.960;2023-04-29T04:25:22;96471.34;;;14.20;53.91
70434;BME280;57876;47.792;12.960;2023-04-29T04:27:46;96457.25;;;14.09;53.91
70434;BME280;57876;47.792;12.960;2023-04-29T04:30:11;96457.09;;;14.14;53.75
70434;BME280;57876;47.792;12.960;2023-04-29T04:32:36;96476.00;;;14.19;53.81
70434;BME280;57876;47.792;12.960;2023-04-29T04:35:02;96466.06;;;14.15;53.73
70434;BME280;57876;47.792;12.960;2023-04-29T04:37:30;96472.78;;;14.17;53.74
70434;BME280;57876;47.792;12.960;2023-04-29T04:39:54;96464.16;;;14.15;53.99
70434;BME280;57876;47.792;12.960;2023-04-29T04:42:19;96474.72;;;14.17;53.86
70434;BME280;57876;47.792;12.960;2023-04-29T04:44:43;96470.06;;;14.17;53.75
70434;BME280;57876;47.792;12.960;2023-04-29T04:47:08;96468.97;;;14.18;53.64
70434;BME280;57876;47.792;12.960;2023-04-29T04:49:32;96470.88;;;14.18;53.36
70434;BME280;57876;47.792;12.960;2023-04-29T04:51:56;96463.03;;;14.16;53.89
70434;BME280;57876;47.792;12.960;2023-04-29T04:54:21;96470.06;;;14.17;53.76
70434;BME280;57876;47.792;12.960;2023-04-29T04:56:45;96462.72;;;14.18;53.75
70434;BME280;57876;47.792;12.960;2023-04-29T04:59:11;96464.63;;;14.17;54.13
70434;BME280;57876;47.792;12.960;2023-04-29T05:01:36;96468.16;;;14.18;53.77
70434;BME280;57876;47.792;12.960;2023-04-29T05:04:00;96464.16;;;14.15;53.76
70434;BME280;57876;47.792;12.960;2023-04-29T05:06:26;96478.22;;;14.17;53.82
70434;BME280;57876;47.792;12.960;2023-04-29T05:08:50;96471.19;;;14.16;54.07
70434;BME280;57876;47.792;12.960;2023-04-29T05:11:16;96483.34;;;14.19;53.58
70434;BME280;57876;47.792;12.960;2023-04-29T05:13:41;96479.66;;;14.15;53.68
70434;BME280;57876;47.792;12.960;2023-04-29T05:16:05;96488.78;;;14.19;53.51
70434;BME280;57876;47.792;12.960;2023-04-29T05:18:30;96490.22;;;14.16;53.88
70434;BME280;57876;47.792;12.960;2023-04-29T05:20:54;96496.16;;;14.18;53.54
70434;BME280;57876;47.792;12.960;2023-04-29T05:23:19;96490.22;;;14.16;53.59
70434;BME280;57876;47.792;12.960;2023-04-29T05:25:43;96495.81;;;14.11;53.81
70434;BME280;57876;47.792;12.960;2023-04-29T05:28:08;96498.53;;;14.11;53.96
70434;BME280;57876;47.792;12.960;2023-04-29T05:30:33;96488.78;;;14.10;53.59
70434;BME280;57876;47.792;12.960;2023-04-29T05:32:58;96504.75;;;14.12;53.81
70434;BME280;57876;47.792;12.960;2023-04-29T05:35:22;96502.84;;;14.12;54.16
70434;BME280;57876;47.792;12.960;2023-04-29T05:37:47;96501.75;;;14.13;53.53
70434;BME280;57876;47.792;12.960;2023-04-29T05:40:12;96503.81;;;14.16;53.59
70434;BME280;57876;47.792;12.960;2023-04-29T05:42:36;96505.41;;;14.17;53.68
70434;BME280;57876;47.792;12.960;2023-04-29T05:45:01;96505.41;;;14.17;54.14
70434;BME280;57876;47.792;12.960;2023-04-29T05:47:25;96509.75;;;14.18;53.74
70434;BME280;57876;47.792;12.960;2023-04-29T05:49:50;96510.84;;;14.17;53.96
70434;BME280;57876;47.792;12.960;2023-04-29T05:52:20;96509.91;;;14.13;53.82
70434;BME280;57876;47.792;12.960;2023-04-29T05:55:01;96502.84;;;14.12;53.54
70434;BME280;57876;47.792;12.960;2023-04-29T05:57:34;96506.06;;;14.14;53.66
70434;BME280;57876;47.792;12.960;2023-04-29T06:00:08;96508.28;;;14.12;53.60
70434;BME280;57876;47.792;12.960;2023-04-29T06:02:32;96507.47;;;14.12;53.87
70434;BME280;57876;47.792;12.960;2023-04-29T06:05:06;96516.44;;;14.12;53.51
70434;BME280;57876;47.792;12.960;2023-04-29T06:07:35;96526.72;;;14.15;53.86
70434;BME280;57876;47.792;12.960;2023-04-29T06:10:03;96531.81;;;14.17;53.98
70434;BME280;57876;47.792;12.960;2023-04-29T06:17:30;96544.00;;;14.19;53.79
70434;BME280;57876;47.792;12.960;2023-04-29T06:19:55;96548.47;;;14.15;53.82
70434;BME280;57876;47.792;12.960;2023-04-29T06:22:20;96551.19;;;14.15;53.94
70434;BME280;57876;47.792;12.960;2023-04-29T06:24:45;96554.38;;;14.17;53.93
70434;BME280;57876;47.792;12.960;2023-04-29T06:27:10;96554.88;;;14.19;54.08
70434;BME280;57876;47.792;12.960;2023-04-29T06:29:35;96549.44;;;14.19;54.08
70434;BME280;57876;47.792;12.960;2023-04-29T06:31:59;96551.78;;;14.12;53.80
70434;BME280;57876;47.792;12.960;2023-04-29T06:34:24;96566.88;;;14.18;54.01
70434;BME280;57876;47.792;12.960;2023-04-29T06:36:48;96553.56;;;14.17;54.03
70434;BME280;57876;47.792;12.960;2023-04-29T06:39:13;96567.00;;;14.13;53.82
70434;BME280;57876;47.792;12.960;2023-04-29T06:41:38;96560.94;;;14.16;53.95
70434;BME280;57876;47.792;12.960;2023-04-29T06:44:04;96572.31;;;14.18;53.90
70434;BME280;57876;47.792;12.960;2023-04-29T06:46:28;96580.16;;;14.20;53.79
70434;BME280;57876;47.792;12.960;2023-04-29T06:48:53;96586.22;;;14.17;53.89
70434;BME280;57876;47.792;12.960;2023-04-29T06:51:17;96582.69;;;14.16;53.90
70434;BME280;57876;47.792;12.960;2023-04-29T06:53:42;96575.34;;;14.17;54.08
70434;BME280;57876;47.792;12.960;2023-04-29T06:56:06;96584.78;;;14.19;53.64
70434;BME280;57876;47.792;12.960;2023-04-29T06:58:31;96586.53;;;14.15;54.08
70434;BME280;57876;47.792;12.960;2023-04-29T07:00:55;96580.28;;;14.15;53.97
70434;BME280;57876;47.792;12.960;2023-04-29T07:03:20;96584.78;;;14.19;54.14
70434;BME280;57876;47.792;12.960;2023-04-29T07:05:45;96571.97;;;14.11;53.88
70434;BME280;57876;47.792;12.960;2023-04-29T07:08:13;96575.03;;;14.18;54.09
70434;BME280;57876;47.792;12.960;2023-04-29T07:10:38;96584.28;;;14.17;54.12
70434;BME280;57876;47.792;12.960;2023-04-29T07:13:03;96585.28;;;14.21;53.85
70434;BME280;57876;47.792;12.960;2023-04-29T07:15:28;96580.78;;;14.17;53.88
70434;BME280;57876;47.792;12.960;2023-04-29T07:17:53;96587.22;;;14.21;54.03
70434;BME280;57876;47.792;12.960;2023-04-29T07:20:18;96582.88;;;14.20;54.12
70434;BME280;57876;47.792;12.960;2023-04-29T07:22:42;96590.72;;;14.21;53.99
70434;BME280;57876;47.792;12.960;2023-04-29T07:25:07;96579.34;;;14.19;53.85
70434;BME280;57876;47.792;12.960;2023-04-29T07:27:33;96584.78;;;14.19;54.23
70434;BME280;57876;47.792;12.960;2023-04-29T07:29:59;96585.78;;;14.23;54.23
70434;BME280;57876;47.792;12.960;2023-04-29T07:32:24;96579.34;;;14.19;54.22
70434;BME280;57876;47.792;12.960;2023-04-29T07:34:48;96577.44;;;14.20;54.05
70434;BME280;57876;47.792;12.960;2023-04-29T07:37:13;96574.25;;;14.18;53.98
70434;BME280;57876;47.792;12.960;2023-04-29T07:39:38;96578.72;;;14.22;53.91
70434;BME280;57876;47.792;12.960;2023-04-29T07:42:02;96583.19;;;14.18;54.02
70434;BME280;57876;47.792;12.960;2023-04-29T07:44:27;96592.81;;;14.24;53.97
70434;BME280;57876;47.792;12.960;2023-04-29T07:46:52;96586.88;;;14.22;54.23
70434;BME280;57876;47.792;12.960;2023-04-29T07:49:16;96594.09;;;14.27;53.95
70434;BME280;57876;47.792;12.960;2023-04-29T07:51:41;96585.78;;;14.23;53.93
70434;BME280;57876;47.792;12.960;2023-04-29T07:54:06;96598.25;;;14.24;54.22
70434;BME280;57876;47.792;12.960;2023-04-29T07:56:30;96586.22;;;14.17;53.96
70434;BME280;57876;47.792;12.960;2023-04-29T07:58:55;96587.84;;;14.18;54.03
70434;BME280;57876;47.792;12.960;2023-04-29T08:01:19;96589.13;;;14.20;54.13
70434;BME280;57876;47.792;12.960;2023-04-29T08:03:44;96586.41;;;14.20;53.94
70434;BME280;57876;47.792;12.960;2023-04-29T08:06:08;96585.28;;;14.21;53.99
70434;BME280;57876;47.792;12.960;2023-04-29T08:08:33;96597.75;;;14.22;53.90
70434;BME280;57876;47.792;12.960;2023-04-29T08:10:58;96590.56;;;14.18;54.12
70434;BME280;57876;47.792;12.960;2023-04-29T08:13:22;96599.69;;;14.22;53.87
70434;BME280;57876;47.792;12.960;2023-04-29T08:15:47;96589.94;;;14.21;53.93
70434;BME280;57876;47.792;12.960;2023-04-29T08:18:11;96591.84;;;14.20;53.90
70434;BME280;57876;47.792;12.960;2023-04-29T08:20:36;96590.22;;;14.19;53.66
70434;BME280;57876;47.792;12.960;2023-04-29T08:23:00;96602.09;;;14.23;54.00
70434;BME280;57876;47.792;12.960;2023-04-29T08:25:27;96586.72;;;14.19;53.72
70434;BME280;57876;47.792;12.960;2023-04-29T08:27:53;96598.88;;;14.21;53.83
70434;BME280;57876;47.792;12.960;2023-04-29T08:30:18;96597.28;;;14.20;54.10
70434;BME280;57876;47.792;12.960;2023-04-29T08:32:43;96606.75;;;14.23;53.82
70434;BME280;57876;47.792;12.960;2023-04-29T08:35:07;96600.00;;;14.20;53.74
70434;BME280;57876;47.792;12.960;2023-04-29T08:37:32;96618.09;;;14.25;53.52
70434;BME280;57876;47.792;12.960;2023-04-29T08:39:57;96608.97;;;14.21;54.01
70434;BME280;57876;47.792;12.960;2023-04-29T08:42:32;96606.25;;;14.21;53.84
70434;BME280;57876;47.792;12.960;2023-04-29T08:44:58;96613.59;;;14.20;53.70
70434;BME280;57876;47.792;12.960;2023-04-29T08:47:23;96618.56;;;14.18;53.93
70434;BME280;57876;47.792;12.960;2023-04-29T08:49:47;96631.03;;;14.19;53.56
70434;BME280;57876;47.792;12.960;2023-04-29T08:52:16;96632.94;;;14.19;54.01
70434;BME280;57876;47.792;12.960;2023-04-29T08:54:40;96633.75;;;14.19;53.73
70434;BME280;57876;47.792;12.960;2023-04-29T08:57:06;96615.34;;;14.16;53.88
70434;BME280;57876;47.792;12.960;2023-04-29T08:59:35;96622.25;;;14.22;53.54
70434;BME280;57876;47.792;12.960;2023-04-29T09:01:59;96618.56;;;14.18;53.51
70434;BME280;57876;47.792;12.960;2023-04-29T09:06:48;96622.88;;;14.19;53.54
70434;BME280;57876;47.792;12.960;2023-04-29T09:09:13;96622.88;;;14.19;53.91
70434;BME280;57876;47.792;12.960;2023-04-29T09:11:38;96626.09;;;14.21;53.63
70434;BME280;57876;47.792;12.960;2023-04-29T09:14:02;96616.34;;;14.20;53.50
70434;BME280;57876;47.792;12.960;2023-04-29T09:16:31;96620.34;;;14.23;53.65
70434;BME280;57876;47.792;12.960;2023-04-29T09:18:55;96621.13;;;14.23;53.74
70434;BME280;57876;47.792;12.960;2023-04-29T09:21:28;96620.66;;;14.21;53.94
70434;BME280;57876;47.792;12.960;2023-04-29T09:24:00;96623.06;;;14.23;53.96
70434;BME280;57876;47.792;12.960;2023-04-29T09:26:26;96611.19;;;14.19;53.85
70434;BME280;57876;47.792;12.960;2023-04-29T09:29:07;96621.59;;;14.25;53.79
70434;BME280;57876;47.792;12.960;2023-04-29T09:31:32;96621.59;;;14.25;53.80
70434;BME280;57876;47.792;12.960;2023-04-29T09:33:56;96616.78;;;14.22;53.75
70434;BME280;57876;47.792;12.960;2023-04-29T09:39:07;96614.56;;;14.24;53.93
70434;BME280;57876;47.792;12.960;2023-04-29T09:41:35;96610.72;;;14.25;53.78
70434;BME280;57876;47.792;12.960;2023-04-29T09:44:05;96619.38;;;14.27;54.04
70434;BME280;57876;47.792;12.960;2023-04-29T09:46:32;96612.19;;;14.23;53.71
70434;BME280;57876;47.792;12.960;2023-04-29T09:48:56;96618.59;;;14.27;53.84
70434;BME280;57876;47.792;12.960;2023-04-29T09:51:21;96613.44;;;14.25;53.85
70434;BME280;57876;47.792;12.960;2023-04-29T09:53:46;96619.22;;;14.24;53.96
70434;BME280;57876;47.792;12.960;2023-04-29T09:56:10;96615.19;;;14.21;54.07
70434;BME280;57876;47.792;12.960;2023-04-29T09:58:35;96615.06;;;14.26;53.92
70434;BME280;57876;47.792;12.960;2023-04-29T10:01:03;96615.88;;;14.27;53.66
70434;BME280;57876;47.792;12.960;2023-04-29T10:03:33;96617.00;;;14.26;53.67
70434;BME280;57876;47.792;12.960;2023-04-29T10:05:59;96613.44;;;14.25;53.53
70434;BME280;57876;47.792;12.960;2023-04-29T10:08:24;96610.72;;;14.25;53.61
70434;BME280;57876;47.792;12.960;2023-04-29T10:10:50;96617.78;;;14.26;53.51
70434;BME280;57876;47.792;12.960;2023-04-29T10:13:20;96609.13;;;14.24;53.62
70434;BME280;57876;47.792;12.960;2023-04-29T10:15:51;96611.22;;;14.27;53.74
70434;BME280;57876;47.792;12.960;2023-04-29T10:18:27;96599.38;;;14.23;53.72
70434;BME280;57876;47.792;12.960;2023-04-29T10:20:56;96595.88;;;14.23;53.58
70434;BME280;57876;47.792;12.960;2023-04-29T10:23:21;96596.03;;;14.26;53.55
70434;BME280;57876;47.792;12.960;2023-04-29T10:25:47;96588.16;;;14.25;53.89
70434;BME280;57876;47.792;12.960;2023-04-29T10:28:14;96592.19;;;14.27;53.57
70434;BME280;57876;47.792;12.960;2023-04-29T10:30:42;96589.78;;;14.26;53.67
70434;BME280;57876;47.792;12.960;2023-04-29T10:33:08;96592.19;;;14.27;53.79
70434;BME280;57876;47.792;12.960;2023-04-29T10:35:35;96578.25;;;14.20;53.92
70434;BME280;57876;47.792;12.960;2023-04-29T10:38:12;96579.72;;;14.26;53.58
70434;BME280;57876;47.792;12.960;2023-04-29T10:40:43;96582.09;;;14.28;53.53
70434;BME280;57876;47.792;12.960;2023-04-29T10:43:11;96569.47;;;14.23;53.55
70434;BME280;57876;47.792;12.960;2023-04-29T10:45:35;96561.75;;;14.25;53.42
70434;BME280;57876;47.792;12.960;2023-04-29T10:50:27;96560.34;;;14.28;53.57
70434;BME280;57876;47.792;12.960;2023-04-29T10:52:54;96555.59;;;14.34;53.58
70434;BME280;57876;47.792;12.960;2023-04-29T10:55:18;96553.66;;;14.34;53.92
70434;BME280;57876;47.792;12.960;2023-04-29T10:57:43;96547.41;;;14.34;53.90
70434;BME280;57876;47.792;12.960;2023-04-29T11:00:20;96546.28;;;14.35;53.89
70434;BME280;57876;47.792;12.960;2023-04-29T11:02:46;96546.59;;;14.33;54.03
70434;BME280;57876;47.792;12.960;2023-04-29T11:05:11;96546.94;;;14.31;54.23
70434;BME280;57876;47.792;12.960;2023-04-29T11:07:35;96538.75;;;14.31;54.17
70434;BME280;57876;47.792;12.960;2023-04-29T11:10:01;96540.34;;;14.32;53.87
70434;BME280;57876;47.792;12.960;2023-04-29T11:12:25;96532.53;;;14.31;54.04
70434;BME280;57876;47.792;12.960;2023-04-29T11:14:50;96524.03;;;14.32;54.11
70434;BME280;57876;47.792;12.960;2023-04-29T11:17:16;96538.56;;;14.28;54.04
70434;BME280;57876;47.792;12.960;2023-04-29T11:19:45;96543.22;;;14.27;53.86
70434;BME280;57876;47.792;12.960;2023-04-29T11:22:23;96548.34;;;14.29;53.90
70434;BME280;57876;47.792;12.960;2023-04-29T11:25:07;96552.19;;;14.28;53.72
70434;BME280;57876;47.792;12.960;2023-04-29T11:27:38;96552.50;;;14.26;54.02
70434;BME280;57876;47.792;12.960;2023-04-29T11:30:04;96553.94;;;14.24;53.86
70434;BME280;57876;47.792;12.960;2023-04-29T11:32:33;96548.78;;;14.22;53.50
70434;BME280;57876;47.792;12.960;2023-04-29T11:35:14;96559.88;;;14.26;53.89
70434;BME280;57876;47.792;12.960;2023-04-29T11:37:40;96564.81;;;14.24;53.68
70434;BME280;57876;47.792;12.960;2023-04-29T11:40:06;96570.41;;;14.27;53.81
70434;BME280;57876;47.792;12.960;2023-04-29T11:42:33;96566.09;;;14.26;53.94
70434;BME280;57876;47.792;12.960;2023-04-29T11:44:58;96579.72;;;14.26;53.79
70434;BME280;57876;47.792;12.960;2023-04-29T11:47:29;96572.66;;;14.25;53.62
70434;BME280;57876;47.792;12.960;2023-04-29T11:50:07;96563.38;;;14.26;53.87
70434;BME280;57876;47.792;12.960;2023-04-29T11:52:37;96572.03;;;14.28;53.73
70434;BME280;57876;47.792;12.960;2023-04-29T11:55:03;96577.47;;;14.28;53.90
70434;BME280;57876;47.792;12.960;2023-04-29T11:57:28;96564.97;;;14.27;53.86
70434;BME280;57876;47.792;12.960;2023-04-29T11:59:53;96566.59;;;14.28;53.97
70434;BME280;57876;47.792;12.960;2023-04-29T12:02:22;96566.59;;;14.28;53.54
70434;BME280;57876;47.792;12.960;2023-04-29T12:04:47;96564.97;;;14.27;53.76
70434;BME280;57876;47.792;12.960;2023-04-29T12:07:16;96547.56;;;14.28;53.66
70434;BME280;57876;47.792;12.960;2023-04-29T12:09:44;96542.13;;;14.28;53.72
70434;BME280;57876;47.792;12.960;2023-04-29T12:12:09;96549.44;;;14.28;53.83
70434;BME280;57876;47.792;12.960;2023-04-29T12:14:37;96558.91;;;14.30;53.79
70434;BME280;57876;47.792;12.960;2023-04-29T12:17:01;96561.16;;;14.28;53.83
70434;BME280;57876;47.792;12.960;2023-04-29T12:19:28;96560.84;;;14.30;53.58
70434;BME280;57876;47.792;12.960;2023-04-29T12:21:52;96559.53;;;14.27;53.92
70434;BME280;57876;47.792;12.960;2023-04-29T12:24:20;96572.97;;;14.24;53.99
70434;BME280;57876;47.792;12.960;2023-04-29T12:26:45;96575.38;;;14.25;53.62
70434;BME280;57876;47.792;12.960;2023-04-29T12:29:10;96595.69;;;14.28;53.77
70434;BME280;57876;47.792;12.960;2023-04-29T12:31:34;96595.41;;;14.29;53.60
70434;BME280;57876;47.792;12.960;2023-04-29T12:33:59;96583.69;;;14.20;53.64
70434;BME280;57876;47.792;12.960;2023-04-29T12:36:24;96595.88;;;14.23;53.70
70434;BME280;57876;47.792;12.960;2023-04-29T12:38:52;96588.97;;;14.25;53.67
70434;BME280;57876;47.792;12.960;2023-04-29T12:41:35;96585.44;;;14.25;53.59
70434;BME280;57876;47.792;12.960;2023-04-29T12:44:00;96589.28;;;14.24;53.75
70434;BME280;57876;47.792;12.960;2023-04-29T12:46:25;96593.44;;;14.21;53.58
70434;BME280;57876;47.792;12.960;2023-04-29T12:49:02;96599.38;;;14.23;53.90
70434;BME280;57876;47.792;12.960;2023-04-29T12:51:31;96612.84;;;14.28;53.51
70434;BME280;57876;47.792;12.960;2023-04-29T12:53:56;96601.31;;;14.23;53.99
70434;BME280;57876;47.792;12.960;2023-04-29T12:56:20;96608.16;;;14.20;53.86
70434;BME280;57876;47.792;12.960;2023-04-29T12:58:45;96612.66;;;14.25;53.86
70434;BME280;57876;47.792;12.960;2023-04-29T13:01:10;96630.25;;;14.27;53.29
70434;BME280;57876;47.792;12.960;2023-04-29T13:03:35;96621.13;;;14.23;53.90
70434;BME280;57876;47.792;12.960;2023-04-29T13:06:00;96619.38;;;14.27;53.50
70434;BME280;57876;47.792;12.960;2023-04-29T13:08:26;96620.50;;;14.26;53.59